createdAt,value
2023-03-30T00:00:17.016Z,6.63
2023-03-30T00:02:49.606Z,8.68
2023-03-30T00:05:19.429Z,8.38
2023-03-30T00:07:48.389Z,6.25
2023-03-30T00:10:19.299Z,8.30
2023-03-30T00:12:50.711Z,7.53
2023-03-30T00:15:21.989Z,7.68
2023-03-30T00:17:55.172Z,6.55
2023-03-30T00:20:24.485Z,8.68
2023-03-30T00:22:53.092Z,8.82
2023-03-30T00:25:23.423Z,6.95
2023-03-30T00:27:52.299Z,5.95
2023-03-30T00:30:21.005Z,8.63
2023-03-30T00:32:49.672Z,7.50
2023-03-30T00:35:19.823Z,8.80
2023-03-30T00:37:49.898Z,7.97
2023-03-30T00:40:21.011Z,6.97
2023-03-30T00:42:50.350Z,5.75
2023-03-30T00:45:25.726Z,6.55
2023-03-30T00:47:58.997Z,6.07
2023-03-30T00:50:35.195Z,6.38
2023-03-30T00:53:10.318Z,6.05
2023-03-30T00:55:41.110Z,6.20
2023-03-30T00:58:11.121Z,9.15
2023-03-30T01:00:41.107Z,6.70
2023-03-30T01:03:14.515Z,7.35
2023-03-30T01:05:46.321Z,5.75
2023-03-30T01:08:17.088Z,7.90
2023-03-30T01:10:46.531Z,7.15
2023-03-30T01:13:16.166Z,7.97
2023-03-30T01:15:57.403Z,7.28
2023-03-30T01:18:37.925Z,6.78
2023-03-30T01:22:01.329Z,6.78
2023-03-30T01:25:18.518Z,7.65
2023-03-30T01:28:19.727Z,8.60
2023-03-30T01:31:18.504Z,6.85
2023-03-30T01:34:18.939Z,8.10
2023-03-30T01:37:16.371Z,6.03
2023-03-30T01:39:55.772Z,7.72
2023-03-30T01:42:33.114Z,10.25
2023-03-30T01:45:11.086Z,7.40
2023-03-30T01:47:43.580Z,6.15
2023-03-30T01:50:16.504Z,8.57
2023-03-30T01:52:54.385Z,8.07
2023-03-30T01:55:29.169Z,7.18
2023-03-30T01:58:04.356Z,9.18
2023-03-30T02:00:33.212Z,9.40
2023-03-30T02:03:08.787Z,7.85
2023-03-30T02:05:38.392Z,9.18
2023-03-30T02:08:11.585Z,8.10
2023-03-30T02:10:43.977Z,9.32
2023-03-30T02:13:14.328Z,8.52
2023-03-30T02:15:47.841Z,10.43
2023-03-30T02:18:16.511Z,9.05
2023-03-30T02:20:45.036Z,10.00
2023-03-30T02:23:13.692Z,8.98
2023-03-30T02:25:43.722Z,8.43
2023-03-30T02:28:12.344Z,9.98
2023-03-30T02:30:44.427Z,10.30
2023-03-30T02:33:23.591Z,9.30
2023-03-30T02:36:04.635Z,10.85
2023-03-30T02:39:06.308Z,14.05
2023-03-30T02:42:08.636Z,11.52
2023-03-30T02:44:45.891Z,13.40
2023-03-30T02:47:20.282Z,10.70
2023-03-30T02:49:58.238Z,9.63
2023-03-30T02:52:40.900Z,9.68
2023-03-30T02:55:18.600Z,10.35
2023-03-30T02:58:30.827Z,8.43
2023-03-30T03:01:31.687Z,12.25
2023-03-30T03:04:15.979Z,8.55
2023-03-30T03:07:07.467Z,8.63
2023-03-30T03:09:36.929Z,9.32
2023-03-30T03:12:07.814Z,8.65
2023-03-30T03:14:41.111Z,10.02
2023-03-30T03:17:09.828Z,8.23
2023-03-30T03:19:45.261Z,7.55
2023-03-30T03:22:14.778Z,9.13
2023-03-30T03:24:44.956Z,6.90
2023-03-30T03:27:46.172Z,9.10
2023-03-30T03:30:26.913Z,9.18
2023-03-30T03:33:10.704Z,10.77
2023-03-30T03:35:40.544Z,9.52
2023-03-30T03:38:10.474Z,8.05
2023-03-30T03:40:39.285Z,11.20
2023-03-30T03:43:08.030Z,9.38
2023-03-30T03:45:38.373Z,9.30
2023-03-30T03:48:08.441Z,10.57
2023-03-30T03:50:52.738Z,7.85
2023-03-30T03:53:22.214Z,9.35
2023-03-30T03:55:53.308Z,8.73
2023-03-30T03:58:22.676Z,9.57
2023-03-30T04:00:58.746Z,10.23
2023-03-30T04:03:27.468Z,8.13
2023-03-30T04:05:59.070Z,8.48
2023-03-30T04:08:28.676Z,9.00
2023-03-30T04:11:08.153Z,9.23
2023-03-30T04:13:57.014Z,11.43
2023-03-30T04:16:45.638Z,9.25
2023-03-30T04:19:43.355Z,8.52
2023-03-30T04:22:25.617Z,10.20
2023-03-30T04:25:07.091Z,9.35
2023-03-30T04:28:05.273Z,13.40
2023-03-30T04:30:59.643Z,11.10
2023-03-30T04:33:53.514Z,13.90
2023-03-30T04:37:00.727Z,11.23
2023-03-30T04:40:00.983Z,12.55
2023-03-30T04:43:02.361Z,13.90
2023-03-30T04:45:52.295Z,12.93
2023-03-30T04:48:48.354Z,12.30
2023-03-30T04:51:32.258Z,14.63
2023-03-30T04:54:19.637Z,10.73
2023-03-30T04:57:07.523Z,11.98
2023-03-30T05:00:15.541Z,11.80
2023-03-30T05:03:02.393Z,13.60
2023-03-30T05:05:58.647Z,14.05
2023-03-30T05:09:05.882Z,11.25
2023-03-30T05:11:54.484Z,12.18
2023-03-30T05:14:45.700Z,12.43
2023-03-30T05:17:38.572Z,12.50
2023-03-30T05:20:36.505Z,16.05
2023-03-30T05:23:24.768Z,13.02
2023-03-30T05:25:53.450Z,13.45
2023-03-30T05:28:40.496Z,12.43
2023-03-30T05:31:32.496Z,11.93
2023-03-30T05:34:30.594Z,15.30
2023-03-30T05:37:15.299Z,14.18
2023-03-30T05:40:11.028Z,16.23
2023-03-30T05:43:02.871Z,14.25
2023-03-30T05:45:50.645Z,13.55
2023-03-30T05:48:48.745Z,13.93
2023-03-30T05:51:20.682Z,16.45
2023-03-30T05:54:02.337Z,17.05
2023-03-30T05:56:58.642Z,15.38
2023-03-30T05:59:38.335Z,22.25
2023-03-30T06:02:27.503Z,16.05
2023-03-30T06:05:03.014Z,20.10
2023-03-30T06:07:32.150Z,14.45
2023-03-30T06:10:01.633Z,16.23
2023-03-30T06:12:32.830Z,17.02
2023-03-30T06:15:03.190Z,16.30
2023-03-30T06:17:53.077Z,21.27
2023-03-30T06:20:26.188Z,18.80
2023-03-30T06:22:55.205Z,19.10
2023-03-30T06:25:26.043Z,16.17
2023-03-30T06:27:58.107Z,16.25
2023-03-30T06:30:27.852Z,16.02
2023-03-30T06:33:00.294Z,19.40
2023-03-30T06:35:39.701Z,16.15
2023-03-30T06:38:09.714Z,16.33
2023-03-30T06:40:38.254Z,18.55
2023-03-30T06:43:08.477Z,17.52
2023-03-30T06:45:40.402Z,16.23
2023-03-30T06:48:09.166Z,18.40
2023-03-30T06:50:40.756Z,17.08
2023-03-30T06:55:53.057Z,20.60
2023-03-30T06:58:25.323Z,19.85
2023-03-30T07:00:54.088Z,16.92
2023-03-30T07:03:42.513Z,19.08
2023-03-30T07:06:20.719Z,19.48
2023-03-30T07:08:50.693Z,15.10
2023-03-30T07:11:26.312Z,17.83
2023-03-30T07:13:58.520Z,21.98
2023-03-30T07:16:27.495Z,15.75
2023-03-30T07:18:56.089Z,19.48
2023-03-30T07:21:25.712Z,17.45
2023-03-30T07:23:54.609Z,17.15
2023-03-30T07:26:32.821Z,19.27
2023-03-30T07:29:09.196Z,22.88
2023-03-30T07:31:40.678Z,17.63
2023-03-30T07:34:12.266Z,18.00
2023-03-30T07:36:47.738Z,23.23
2023-03-30T07:39:16.984Z,15.40
2023-03-30T07:41:47.546Z,20.08
2023-03-30T07:44:17.764Z,21.65
2023-03-30T07:46:46.540Z,20.25
2023-03-30T07:49:21.580Z,19.17
2023-03-30T07:51:50.871Z,19.67
2023-03-30T07:54:31.897Z,23.73
2023-03-30T07:57:30.016Z,19.05
2023-03-30T08:00:01.115Z,16.02
2023-03-30T08:02:42.470Z,17.33
2023-03-30T08:05:15.800Z,18.40
2023-03-30T08:08:10.907Z,16.88
2023-03-30T08:10:40.780Z,20.40
2023-03-30T08:13:09.766Z,17.98
2023-03-30T08:15:39.835Z,18.70
2023-03-30T08:18:08.915Z,20.08
2023-03-30T08:20:38.934Z,19.23
2023-03-30T08:23:08.098Z,17.48
2023-03-30T08:25:36.877Z,17.75
2023-03-30T08:28:06.141Z,16.07
2023-03-30T08:30:34.867Z,19.13
2023-03-30T08:33:05.004Z,14.93
2023-03-30T08:35:33.897Z,18.90
2023-03-30T08:38:02.617Z,19.70
2023-03-30T08:40:31.865Z,19.00
2023-03-30T08:43:13.540Z,19.40
2023-03-30T08:45:43.805Z,18.95
2023-03-30T08:50:54.993Z,22.45
2023-03-30T08:53:23.822Z,18.52
2023-03-30T08:55:57.170Z,18.55
2023-03-30T08:58:34.384Z,18.20
2023-03-30T09:01:17.232Z,18.80
2023-03-30T09:04:03.579Z,19.65
2023-03-30T09:06:46.093Z,20.42
2023-03-30T09:09:17.739Z,19.40
2023-03-30T09:11:49.468Z,17.67
2023-03-30T09:14:26.090Z,23.23
2023-03-30T09:16:59.421Z,20.13
2023-03-30T09:19:35.822Z,15.95
2023-03-30T09:22:07.281Z,22.80
2023-03-30T09:24:36.359Z,22.15
2023-03-30T09:27:11.077Z,19.65
2023-03-30T09:29:44.797Z,21.27
2023-03-30T09:32:18.964Z,20.85
2023-03-30T09:34:57.105Z,21.02
2023-03-30T09:37:26.427Z,20.90
2023-03-30T09:39:55.166Z,18.45
2023-03-30T09:42:35.133Z,17.17
2023-03-30T09:45:12.926Z,25.20
2023-03-30T09:47:42.848Z,16.92
2023-03-30T09:50:18.917Z,20.23
2023-03-30T09:52:58.036Z,20.23
2023-03-30T09:55:30.044Z,18.80
2023-03-30T09:58:13.919Z,19.23
2023-03-30T10:00:43.508Z,19.83
2023-03-30T10:03:22.097Z,20.85
2023-03-30T10:06:04.164Z,19.67
2023-03-30T10:08:33.343Z,22.55
2023-03-30T10:11:06.181Z,20.67
2023-03-30T10:13:37.957Z,19.67
2023-03-30T10:16:09.378Z,18.80
2023-03-30T10:18:43.870Z,20.92
2023-03-30T10:21:22.868Z,18.42
2023-03-30T10:24:04.146Z,24.65
2023-03-30T10:26:34.792Z,21.08
2023-03-30T10:29:05.715Z,22.02
2023-03-30T10:31:37.466Z,21.65
2023-03-30T10:34:09.281Z,19.45
2023-03-30T10:36:41.791Z,19.98
2023-03-30T10:39:16.065Z,23.98
2023-03-30T10:41:45.600Z,22.80
2023-03-30T10:44:26.404Z,25.08
2023-03-30T10:47:03.780Z,28.27
2023-03-30T10:49:44.111Z,23.15
2023-03-30T10:52:24.669Z,25.35
2023-03-30T10:54:57.323Z,24.02
2023-03-30T10:57:33.020Z,23.60
2023-03-30T11:00:20.798Z,23.83
2023-03-30T11:03:01.115Z,21.23
2023-03-30T11:05:33.865Z,21.20
2023-03-30T11:08:06.346Z,20.88
2023-03-30T11:10:38.479Z,20.77
2023-03-30T11:13:09.174Z,21.63
2023-03-30T11:15:45.118Z,21.92
2023-03-30T11:18:19.457Z,19.95
2023-03-30T11:20:57.545Z,24.30
2023-03-30T11:23:39.071Z,21.42
2023-03-30T11:26:12.551Z,23.85
2023-03-30T11:29:04.051Z,22.98
2023-03-30T11:31:50.090Z,22.77
2023-03-30T11:34:28.259Z,22.50
2023-03-30T11:37:03.849Z,25.08
2023-03-30T11:39:38.423Z,25.02
2023-03-30T11:42:16.264Z,24.42
2023-03-30T11:44:44.926Z,25.85
2023-03-30T11:47:36.060Z,31.83
2023-03-30T11:50:19.468Z,28.25
2023-03-30T11:52:57.852Z,24.70
2023-03-30T11:55:52.402Z,22.75
2023-03-30T11:58:31.178Z,24.15
2023-03-30T12:01:21.947Z,23.60
2023-03-30T12:03:54.474Z,26.27
2023-03-30T12:06:31.108Z,27.05
2023-03-30T12:09:29.421Z,22.23
2023-03-30T12:12:06.329Z,28.17
2023-03-30T12:15:01.817Z,24.50
2023-03-30T12:17:38.057Z,22.90
2023-03-30T12:20:16.718Z,23.40
2023-03-30T12:22:48.886Z,24.95
2023-03-30T12:25:28.037Z,24.83
2023-03-30T12:28:11.215Z,20.80
2023-03-30T12:30:48.610Z,20.33
2023-03-30T12:33:20.903Z,21.55
2023-03-30T12:36:01.466Z,21.10
2023-03-30T12:38:39.370Z,21.45
2023-03-30T12:41:15.459Z,19.90
2023-03-30T12:44:17.960Z,22.27
2023-03-30T12:47:00.840Z,24.05
2023-03-30T12:49:41.477Z,19.95
2023-03-30T12:52:16.166Z,19.13
2023-03-30T12:55:00.493Z,17.63
2023-03-30T12:57:37.820Z,18.80
2023-03-30T13:00:31.814Z,18.50
2023-03-30T13:03:18.566Z,18.52
2023-03-30T13:05:51.531Z,16.90
2023-03-30T13:08:24.137Z,17.50
2023-03-30T13:10:52.794Z,18.52
2023-03-30T13:13:46.010Z,19.60
2023-03-30T13:16:16.243Z,20.27
2023-03-30T13:18:55.458Z,22.58
2023-03-30T13:21:26.112Z,21.88
2023-03-30T13:24:05.516Z,22.20
2023-03-30T13:26:45.931Z,22.45
2023-03-30T13:29:17.426Z,21.70
2023-03-30T13:32:02.352Z,20.65
2023-03-30T13:35:06.223Z,21.08
2023-03-30T13:38:01.564Z,22.45
2023-03-30T13:40:41.837Z,19.27
2023-03-30T13:43:24.063Z,25.80
2023-03-30T13:46:13.270Z,20.95
2023-03-30T13:48:57.197Z,19.40
2023-03-30T13:51:28.570Z,19.15
2023-03-30T13:54:02.198Z,21.00
2023-03-30T13:56:34.475Z,23.30
2023-03-30T13:59:06.637Z,21.20
2023-03-30T14:01:39.558Z,25.48
2023-03-30T14:04:13.797Z,23.30
2023-03-30T14:06:47.134Z,19.38
2023-03-30T14:09:21.680Z,19.73
2023-03-30T14:11:53.325Z,22.50
2023-03-30T14:14:28.180Z,20.77
2023-03-30T14:16:57.537Z,22.95
2023-03-30T14:19:29.350Z,23.27
2023-03-30T14:22:01.683Z,24.00
2023-03-30T14:24:31.841Z,21.00
2023-03-30T14:27:04.407Z,19.67
2023-03-30T14:29:33.100Z,24.55
2023-03-30T14:32:09.201Z,20.25
2023-03-30T14:34:40.977Z,20.20
2023-03-30T14:37:12.222Z,19.25
2023-03-30T14:39:43.440Z,18.52
2023-03-30T14:42:18.836Z,18.08
2023-03-30T14:44:49.768Z,21.55
2023-03-30T14:47:22.384Z,19.33
2023-03-30T14:49:54.664Z,20.48
2023-03-30T14:52:24.649Z,19.80
2023-03-30T14:55:05.845Z,22.80
2023-03-30T14:57:40.088Z,18.63
2023-03-30T15:00:21.410Z,21.60
2023-03-30T15:02:53.519Z,17.15
2023-03-30T15:05:26.059Z,24.33
2023-03-30T15:07:54.965Z,23.27
2023-03-30T15:10:27.246Z,27.70
2023-03-30T15:12:58.556Z,52.03
2023-03-30T15:15:31.245Z,43.97
2023-03-30T15:18:00.894Z,54.58
2023-03-30T15:23:02.071Z,112.72
2023-03-30T15:25:34.037Z,26.73
2023-03-30T15:28:05.421Z,33.30
2023-03-30T15:30:36.610Z,31.63
2023-03-30T15:33:06.133Z,23.52
2023-03-30T15:35:38.525Z,20.23
2023-03-30T15:38:19.020Z,18.50
2023-03-30T15:40:50.223Z,20.95
2023-03-30T15:43:21.267Z,17.15
2023-03-30T15:45:53.652Z,19.90
2023-03-30T15:48:26.667Z,17.65
2023-03-30T15:51:05.002Z,18.48
2023-03-30T15:53:36.053Z,18.20
2023-03-30T15:56:06.562Z,23.45
2023-03-30T15:58:45.093Z,19.90
2023-03-30T16:01:16.180Z,22.40
2023-03-30T16:03:54.271Z,23.80
2023-03-30T16:06:24.695Z,22.67
2023-03-30T16:08:53.411Z,24.30
2023-03-30T16:11:24.103Z,22.48
2023-03-30T16:13:54.701Z,24.77
2023-03-30T16:16:23.449Z,25.58
2023-03-30T16:18:52.047Z,25.70
2023-03-30T16:21:24.503Z,24.37
2023-03-30T16:23:54.706Z,23.15
2023-03-30T16:26:23.290Z,21.35
2023-03-30T16:28:53.256Z,27.15
2023-03-30T16:31:24.133Z,27.98
2023-03-30T16:33:53.014Z,27.63
2023-03-30T16:36:24.243Z,26.00
2023-03-30T16:38:54.370Z,26.48
2023-03-30T16:41:24.371Z,25.70
2023-03-30T16:43:53.202Z,24.45
2023-03-30T16:46:22.414Z,27.70
2023-03-30T16:48:51.068Z,22.45
2023-03-30T16:51:20.156Z,30.02
2023-03-30T16:53:48.986Z,27.83
2023-03-30T16:56:20.284Z,31.13
2023-03-30T16:58:49.339Z,29.45
2023-03-30T17:01:18.846Z,32.08
2023-03-30T17:03:48.922Z,32.95
2023-03-30T17:06:17.849Z,30.60
2023-03-30T17:08:46.681Z,34.88
2023-03-30T17:11:16.389Z,33.83
2023-03-30T17:16:16.866Z,34.90
2023-03-30T17:18:45.359Z,32.40
2023-03-30T17:21:16.700Z,46.42
2023-03-30T17:23:47.963Z,33.00
2023-03-30T17:26:18.576Z,30.80
2023-03-30T17:28:48.796Z,29.95
2023-03-30T17:31:19.570Z,35.60
2023-03-30T17:33:49.345Z,36.67
2023-03-30T17:36:20.383Z,31.00
2023-03-30T17:38:49.456Z,31.30
2023-03-30T17:41:19.598Z,27.17
2023-03-30T17:43:50.369Z,30.42
2023-03-30T17:46:20.844Z,28.25
2023-03-30T17:48:51.282Z,29.23
2023-03-30T17:51:20.726Z,26.05
2023-03-30T17:53:49.498Z,26.75
2023-03-30T17:56:18.123Z,33.33
2023-03-30T17:58:49.738Z,36.42
2023-03-30T18:01:18.465Z,33.55
2023-03-30T18:03:47.185Z,56.25
2023-03-30T18:06:15.960Z,64.73
2023-03-30T18:08:44.562Z,47.80
2023-03-30T18:11:13.314Z,43.90
2023-03-30T18:13:41.912Z,34.90
2023-03-30T18:16:14.230Z,30.83
2023-03-30T18:18:43.023Z,36.22
2023-03-30T18:21:12.250Z,34.92
2023-03-30T18:23:40.957Z,31.33
2023-03-30T18:26:13.090Z,34.63
2023-03-30T18:28:44.067Z,30.65
2023-03-30T18:31:14.607Z,30.67
2023-03-30T18:33:43.336Z,33.92
2023-03-30T18:36:13.370Z,33.13
2023-03-30T18:38:42.616Z,30.63
2023-03-30T18:41:13.259Z,30.90
2023-03-30T18:43:42.062Z,38.65
2023-03-30T18:46:14.714Z,39.03
2023-03-30T18:48:43.402Z,29.48
2023-03-30T18:51:12.783Z,34.17
2023-03-30T18:53:41.625Z,30.45
2023-03-30T18:56:13.823Z,26.77
2023-03-30T18:58:43.120Z,25.08
2023-03-30T19:01:13.860Z,27.40
2023-03-30T19:03:44.905Z,32.95
2023-03-30T19:06:16.591Z,27.75
2023-03-30T19:08:45.203Z,26.88
2023-03-30T19:11:17.992Z,25.13
2023-03-30T19:13:47.342Z,29.35
2023-03-30T19:16:18.797Z,28.27
2023-03-30T19:18:49.628Z,27.08
2023-03-30T19:21:19.965Z,29.40
2023-03-30T19:23:48.670Z,26.15
2023-03-30T19:26:17.255Z,26.17
2023-03-30T19:28:45.983Z,26.35
2023-03-30T19:31:16.409Z,29.38
2023-03-30T19:33:45.139Z,22.80
2023-03-30T19:36:15.183Z,25.58
2023-03-30T19:38:44.354Z,27.35
2023-03-30T19:41:12.966Z,24.80
2023-03-30T19:43:41.549Z,23.05
2023-03-30T19:46:10.152Z,24.23
2023-03-30T19:48:38.791Z,26.23
2023-03-30T19:51:07.738Z,25.13
2023-03-30T19:53:39.559Z,25.10
2023-03-30T19:56:11.243Z,24.08
2023-03-30T19:58:40.417Z,24.67
2023-03-30T20:01:10.489Z,25.25
2023-03-30T20:03:39.579Z,23.88
2023-03-30T20:06:11.747Z,24.48
2023-03-30T20:08:43.594Z,24.80
2023-03-30T20:11:13.802Z,26.33
2023-03-30T20:13:46.076Z,24.70
2023-03-30T20:16:20.524Z,20.02
2023-03-30T20:18:50.812Z,24.77
2023-03-30T20:21:20.008Z,22.85
2023-03-30T20:23:50.281Z,22.23
2023-03-30T20:26:19.515Z,25.95
2023-03-30T20:28:48.464Z,22.38
2023-03-30T20:31:17.741Z,24.83
2023-03-30T20:33:46.298Z,23.70
2023-03-30T20:36:14.785Z,23.58
2023-03-30T20:38:46.023Z,22.67
2023-03-30T20:41:16.642Z,29.50
2023-03-30T20:43:55.762Z,23.35
2023-03-30T20:46:35.485Z,25.30
2023-03-30T20:49:04.097Z,24.40
2023-03-30T20:51:32.730Z,26.38
2023-03-30T20:54:01.430Z,23.95
2023-03-30T20:56:31.482Z,21.90
2023-03-30T20:59:00.549Z,27.10
2023-03-30T21:01:30.325Z,24.25
2023-03-30T21:04:00.625Z,24.40
2023-03-30T21:06:30.926Z,24.85
2023-03-30T21:09:02.392Z,25.58
2023-03-30T21:11:34.180Z,22.42
2023-03-30T21:14:03.200Z,21.25
2023-03-30T21:16:31.730Z,22.20
2023-03-30T21:19:00.484Z,24.10
2023-03-30T21:21:29.039Z,22.65
2023-03-30T21:23:58.253Z,23.25
2023-03-30T21:26:26.782Z,23.52
2023-03-30T21:28:57.350Z,24.83
2023-03-30T21:31:26.082Z,24.92
2023-03-30T21:33:54.780Z,24.13
2023-03-30T21:36:23.552Z,23.50
2023-03-30T21:38:52.149Z,25.90
2023-03-30T21:41:24.404Z,27.00
2023-03-30T21:43:53.312Z,24.15
2023-03-30T21:46:25.023Z,25.60
2023-03-30T21:48:54.650Z,27.70
2023-03-30T21:53:54.456Z,23.88
2023-03-30T21:58:52.700Z,25.27
2023-03-30T22:01:24.228Z,25.77
2023-03-30T22:04:11.479Z,24.73
2023-03-30T22:06:40.139Z,25.77
2023-03-30T22:09:08.744Z,25.02
2023-03-30T22:11:55.951Z,25.95
2023-03-30T22:14:24.797Z,29.65
2023-03-30T22:16:54.793Z,23.83
2023-03-30T22:19:24.805Z,27.08
2023-03-30T22:21:53.434Z,22.75
2023-03-30T22:24:22.062Z,23.40
2023-03-30T22:26:50.830Z,27.10
2023-03-30T22:29:20.988Z,26.45
2023-03-30T22:31:51.610Z,24.63
2023-03-30T22:34:21.789Z,25.13
2023-03-30T22:36:50.443Z,22.02
2023-03-30T22:39:19.267Z,21.35
2023-03-30T22:41:47.879Z,23.47
2023-03-30T22:44:17.874Z,26.08
2023-03-30T22:46:46.588Z,21.95
2023-03-30T22:49:15.742Z,22.98
2023-03-30T22:51:52.632Z,25.42
2023-03-30T22:54:21.925Z,27.50
2023-03-30T22:56:50.528Z,26.53
2023-03-30T22:59:19.282Z,21.75
2023-03-30T23:01:47.878Z,23.38
2023-03-30T23:04:17.181Z,26.50
2023-03-30T23:06:48.134Z,24.13
2023-03-30T23:09:16.766Z,24.63
2023-03-30T23:11:46.091Z,25.15
2023-03-30T23:14:15.138Z,21.00
2023-03-30T23:16:43.755Z,24.13
2023-03-30T23:19:13.270Z,23.42
2023-03-30T23:21:41.911Z,21.02
2023-03-30T23:24:13.205Z,22.48
2023-03-30T23:26:42.286Z,22.52
2023-03-30T23:29:11.468Z,24.65
2023-03-30T23:31:40.252Z,22.90
2023-03-30T23:34:10.296Z,22.57
2023-03-30T23:36:39.762Z,21.08
2023-03-30T23:39:09.348Z,22.38
2023-03-30T23:41:39.336Z,21.40
2023-03-30T23:44:07.863Z,22.27
2023-03-30T23:46:36.516Z,21.88
2023-03-30T23:49:05.251Z,22.27
2023-03-30T23:51:33.808Z,20.80
2023-03-30T23:54:06.326Z,22.27
2023-03-30T23:56:35.474Z,20.80
2023-03-30T23:59:06.612Z,24.17
